Time;durP1;ratioP1;P1;durP2;ratioP2;P2;SDS_P1;SDS_P2;PMS_P1;PMS_P2;Temp;Humidity;BMP_temperature;BMP_pressure;BME280_temperature;BME280_humidity;BME280_pressure;Samples;Min_cycle;Max_cycle;Signal;HPM_P1;HPM_P2
2023/06/12 16:36:49;;;;;;;35.60;8.85;;;32.80;42.80;;;;;;5082508;27;20569;-64
2023/06/12 16:39:16;;;;;;;59.60;11.18;;;32.60;44.70;;;;;;5058592;28;20239;-65
2023/06/12 16:41:43;;;;;;;52.70;9.77;;;32.70;44.80;;;;;;5057737;28;20207;-71
2023/06/12 16:44:10;;;;;;;33.85;8.30;;;32.90;44.50;;;;;;5069345;28;20304;-65
2023/06/12 16:46:37;;;;;;;40.95;9.00;;;33.20;44.10;;;;;;5056001;28;20341;-68
2023/06/12 16:49:03;;;;;;;30.35;7.53;;;33.50;43.70;;;;;;5065043;28;20668;-73
2023/06/12 16:51:30;;;;;;;31.02;8.57;;;33.70;43.30;;;;;;5064089;28;20206;-67
2023/06/12 16:53:59;;;;;;;68.63;11.52;;;33.80;43.60;;;;;;5059842;28;20196;-65
2023/06/12 16:56:26;;;;;;;27.45;7.68;;;33.90;42.50;;;;;;5074905;28;20231;-65
2023/06/12 16:58:53;;;;;;;30.38;8.02;;;34.10;42.40;;;;;;5066126;28;20207;-66
2023/06/12 17:01:21;;;;;;;39.20;8.85;;;34.20;42.20;;;;;;5069187;28;20541;-65
2023/06/12 17:03:47;;;;;;;32.53;8.23;;;34.20;42.00;;;;;;5075809;28;21230;-65
2023/06/12 17:06:14;;;;;;;32.53;8.77;;;34.20;41.70;;;;;;5056944;28;20207;-64
2023/06/12 17:08:42;;;;;;;29.48;7.97;;;34.30;41.60;;;;;;5058724;28;20196;-65
2023/06/12 17:11:10;;;;;;;34.95;9.02;;;34.30;41.40;;;;;;5053624;28;20200;-65
2023/06/12 17:13:37;;;;;;;27.73;8.27;;;34.30;41.20;;;;;;5044278;28;20215;-64
2023/06/12 17:16:05;;;;;;;27.58;8.32;;;34.30;41.20;;;;;;5033864;28;20209;-65
2023/06/12 17:18:32;;;;;;;25.50;7.85;;;34.30;41.20;;;;;;5024710;28;20741;-65
2023/06/12 17:20:58;;;;;;;33.63;8.60;;;34.30;41.20;;;;;;5031433;28;20196;-73
2023/06/12 17:23:27;;;;;;;35.30;8.18;;;34.20;41.00;;;;;;5061429;28;20200;-65
2023/06/12 17:25:54;;;;;;;31.70;8.27;;;34.20;40.90;;;;;;5036598;28;20680;-63
2023/06/12 17:28:22;;;;;;;30.27;8.15;;;34.10;40.70;;;;;;5030056;28;20228;-64
2023/06/12 17:30:49;;;;;;;87.47;13.55;;;34.10;40.70;;;;;;5026855;28;20668;-65
2023/06/12 17:33:16;;;;;;;30.85;8.25;;;34.10;40.80;;;;;;5055545;28;20219;-64
2023/06/12 17:35:44;;;;;;;39.65;8.35;;;34.00;40.80;;;;;;5059119;28;20234;-65
2023/06/12 17:38:10;;;;;;;31.92;8.38;;;34.00;40.90;;;;;;5041164;28;20201;-63
2023/06/12 17:40:37;;;;;;;34.08;8.43;;;33.90;40.70;;;;;;5043532;28;20577;-65
2023/06/12 17:43:04;;;;;;;37.55;9.25;;;33.90;40.70;;;;;;5044472;28;20223;-65
2023/06/12 17:45:32;;;;;;;27.00;7.57;;;33.80;40.70;;;;;;5036259;28;20204;-67
2023/06/12 17:47:59;;;;;;;33.80;8.27;;;33.80;40.60;;;;;;5023829;28;20213;-64
2023/06/12 17:50:29;;;;;;;25.77;7.97;;;33.70;40.70;;;;;;5025557;28;20205;-62
2023/06/12 17:52:56;;;;;;;23.70;7.38;;;33.70;40.80;;;;;;5029380;28;20205;-62
2023/06/12 17:55:23;;;;;;;28.10;7.78;;;33.70;40.80;;;;;;5041586;28;20269;-61
2023/06/12 17:57:50;;;;;;;63.80;11.80;;;33.60;40.80;;;;;;5035868;28;20645;-60
2023/06/12 18:00:19;;;;;;;42.13;9.27;;;33.60;40.80;;;;;;5021775;28;20642;-62
2023/06/12 18:02:48;;;;;;;32.03;8.40;;;33.60;40.80;;;;;;5011193;28;20279;-67
2023/06/12 18:05:15;;;;;;;37.13;8.65;;;33.50;40.80;;;;;;5032101;28;20232;-69
2023/06/12 18:07:42;;;;;;;30.33;7.93;;;33.40;40.80;;;;;;5050026;28;20195;-65
2023/06/12 18:10:09;;;;;;;34.20;8.27;;;33.40;40.90;;;;;;5039646;28;20220;-63
2023/06/12 18:12:36;;;;;;;43.78;9.05;;;33.40;40.90;;;;;;5019946;28;20633;-63
2023/06/12 18:15:03;;;;;;;28.65;8.20;;;33.40;41.00;;;;;;5027869;28;20193;-63
2023/06/12 18:17:30;;;;;;;28.77;8.05;;;33.30;41.00;;;;;;5025187;28;20816;-63
2023/06/12 18:19:58;;;;;;;54.08;10.43;;;33.30;41.00;;;;;;5010775;28;20227;-63
2023/06/12 18:22:25;;;;;;;24.23;7.90;;;33.30;41.00;;;;;;5010237;28;20205;-65
2023/06/12 18:24:55;;;;;;;32.45;7.93;;;33.20;41.00;;;;;;5010132;28;20201;-64
2023/06/12 18:27:22;;;;;;;29.15;7.75;;;33.20;41.00;;;;;;5018474;28;20209;-62
2023/06/12 18:29:51;;;;;;;38.75;8.63;;;33.20;41.10;;;;;;5041039;28;20213;-64
2023/06/12 18:32:18;;;;;;;35.47;8.02;;;33.10;41.00;;;;;;5043887;28;20212;-63
2023/06/12 18:34:46;;;;;;;29.83;8.02;;;33.10;41.10;;;;;;5026882;28;20649;-59
2023/06/12 18:37:15;;;;;;;45.35;9.30;;;33.00;41.00;;;;;;5015263;28;20267;-59
2023/06/12 18:39:42;;;;;;;33.65;7.68;;;33.00;40.90;;;;;;5017967;28;20213;-62
2023/06/12 18:42:10;;;;;;;40.08;8.95;;;33.00;41.00;;;;;;5021289;28;20463;-60
2023/06/12 18:44:37;;;;;;;71.07;11.95;;;33.00;41.10;;;;;;5022588;28;20299;-58
2023/06/12 18:47:04;;;;;;;26.35;7.55;;;33.00;41.10;;;;;;5029995;28;20646;-60
2023/06/12 18:49:31;;;;;;;41.03;8.70;;;33.00;41.10;;;;;;5019110;28;20203;-68
2023/06/12 18:51:58;;;;;;;31.50;7.95;;;32.90;41.10;;;;;;5016029;28;20208;-61
2023/06/12 18:54:27;;;;;;;53.08;10.27;;;32.90;41.20;;;;;;5009565;28;20197;-59
2023/06/12 18:56:54;;;;;;;36.05;8.48;;;32.90;41.10;;;;;;5023152;28;20233;-59
2023/06/12 18:59:21;;;;;;;25.27;7.25;;;32.80;41.10;;;;;;5027258;28;20227;-62
2023/06/12 19:01:48;;;;;;;39.40;8.85;;;32.80;41.20;;;;;;5040238;28;20207;-62
2023/06/12 19:04:15;;;;;;;31.77;7.82;;;32.80;41.20;;;;;;5011293;28;20279;-62
2023/06/12 19:06:42;;;;;;;26.55;7.85;;;32.80;41.20;;;;;;5025233;28;20983;-58
2023/06/12 19:09:10;;;;;;;34.35;7.90;;;32.80;41.20;;;;;;5011378;28;20215;-62
2023/06/12 19:11:38;;;;;;;36.17;8.07;;;32.70;41.20;;;;;;5011387;28;20579;-58
2023/06/12 19:14:05;;;;;;;36.42;8.20;;;32.70;41.20;;;;;;5020625;28;20200;-62
2023/06/12 19:16:32;;;;;;;28.55;7.63;;;32.70;41.40;;;;;;5021470;28;20594;-64
2023/06/12 19:18:59;;;;;;;88.60;13.13;;;32.70;42.00;;;;;;5017652;28;20207;-63
2023/06/12 19:21:25;;;;;;;31.50;7.78;;;32.70;41.70;;;;;;5032462;28;20196;-64
2023/06/12 19:23:52;;;;;;;27.73;7.57;;;32.60;41.30;;;;;;5014140;28;20205;-62
2023/06/12 19:26:21;;;;;;;42.65;8.48;;;32.60;41.40;;;;;;5009573;28;20205;-62
2023/06/12 19:28:51;;;;;;;40.00;8.15;;;32.60;41.30;;;;;;5008745;28;20655;-62
2023/06/12 19:31:18;;;;;;;36.05;8.23;;;32.60;41.30;;;;;;5011450;28;20240;-62
2023/06/12 19:33:46;;;;;;;33.63;8.13;;;32.60;41.30;;;;;;5021323;28;20193;-64
2023/06/12 19:36:13;;;;;;;42.67;8.80;;;32.60;41.30;;;;;;5016156;28;20307;-71
2023/06/12 19:38:39;;;;;;;46.35;9.38;;;32.60;41.30;;;;;;5027620;28;20204;-60
2023/06/12 19:41:06;;;;;;;33.15;7.72;;;32.50;41.30;;;;;;5010904;28;20208;-61
2023/06/12 19:43:34;;;;;;;41.45;8.57;;;32.50;41.30;;;;;;5023458;28;20209;-60
2023/06/12 19:46:02;;;;;;;54.38;9.68;;;32.50;41.30;;;;;;5033257;28;20239;-59
2023/06/12 19:48:29;;;;;;;34.13;8.13;;;32.50;41.30;;;;;;5031969;28;20211;-58
2023/06/12 19:50:56;;;;;;;27.05;7.20;;;32.40;41.20;;;;;;5023612;28;20211;-67
2023/06/12 19:53:23;;;;;;;40.63;8.02;;;32.50;41.30;;;;;;5030547;28;20207;-63
2023/06/12 19:55:50;;;;;;;29.27;7.38;;;32.40;41.20;;;;;;5025554;28;20420;-62
2023/06/12 19:58:17;;;;;;;41.22;8.38;;;32.40;41.20;;;;;;5011177;28;20292;-62
2023/06/12 20:00:44;;;;;;;36.50;8.10;;;32.40;41.20;;;;;;5034270;28;20212;-62
2023/06/12 20:03:12;;;;;;;31.10;7.22;;;32.30;41.10;;;;;;5030157;28;20196;-61
2023/06/12 20:05:39;;;;;;;37.25;7.68;;;32.30;41.00;;;;;;5032379;28;20224;-65
2023/06/12 20:08:06;;;;;;;23.77;6.78;;;32.40;41.10;;;;;;5028028;28;20201;-66
2023/06/12 20:10:33;;;;;;;26.25;6.97;;;32.30;41.00;;;;;;5035329;28;20208;-65
2023/06/12 20:13:01;;;;;;;70.18;10.68;;;32.30;40.90;;;;;;5040894;28;20201;-64
2023/06/12 20:15:28;;;;;;;28.27;6.63;;;32.30;40.90;;;;;;5030817;28;20200;-67
2023/06/12 20:17:55;;;;;;;39.88;7.88;;;32.30;40.90;;;;;;5025487;28;20202;-63
2023/06/12 20:20:23;;;;;;;30.15;7.65;;;32.20;40.80;;;;;;5027633;28;20467;-62
2023/06/12 20:22:51;;;;;;;31.80;7.68;;;32.20;40.70;;;;;;5027241;28;20207;-66
2023/06/12 20:25:18;;;;;;;35.47;7.65;;;32.20;40.70;;;;;;5025332;28;20263;-63
2023/06/12 20:27:44;;;;;;;28.48;7.03;;;32.20;40.70;;;;;;5027124;28;20216;-62
2023/06/12 20:30:12;;;;;;;41.22;7.93;;;32.10;41.30;;;;;;5025226;28;20577;-62
2023/06/12 20:32:39;;;;;;;29.95;7.00;;;32.10;40.60;;;;;;5038461;28;20204;-62
2023/06/12 20:35:07;;;;;;;28.73;7.40;;;32.10;40.60;;;;;;5037362;28;20215;-71
2023/06/12 20:37:36;;;;;;;48.92;8.57;;;32.00;40.60;;;;;;5011348;28;20316;-64
2023/06/12 20:40:05;;;;;;;39.80;8.35;;;32.00;40.50;;;;;;5015061;28;20570;-61
2023/06/12 20:42:31;;;;;;;33.85;7.60;;;32.00;40.50;;;;;;5008215;28;20201;-63
2023/06/12 20:44:58;;;;;;;43.47;8.07;;;32.00;40.50;;;;;;5023004;28;20729;-66
2023/06/12 20:47:25;;;;;;;40.47;7.70;;;32.00;40.50;;;;;;5026823;28;20196;-61
2023/06/12 20:49:52;;;;;;;22.58;6.30;;;32.00;40.50;;;;;;5038166;28;20997;-61
2023/06/12 20:52:19;;;;;;;45.75;8.27;;;31.90;40.40;;;;;;5029733;28;20939;-63
2023/06/12 20:54:47;;;;;;;51.10;8.75;;;31.90;40.30;;;;;;5014396;28;20196;-62
2023/06/12 20:57:14;;;;;;;25.75;6.60;;;31.90;40.30;;;;;;5021681;28;20216;-62
2023/06/12 20:59:41;;;;;;;120.30;15.18;;;31.90;40.40;;;;;;5040979;28;20291;-63
2023/06/12 21:02:08;;;;;;;24.15;6.60;;;31.80;40.40;;;;;;5040259;28;20667;-62
2023/06/12 21:04:35;;;;;;;56.60;9.57;;;31.80;40.40;;;;;;5042338;28;20952;-62
2023/06/12 21:07:02;;;;;;;27.60;6.93;;;31.80;40.40;;;;;;5026036;28;20214;-63
2023/06/12 21:09:31;;;;;;;53.00;9.98;;;31.70;40.30;;;;;;5010768;28;20209;-63
2023/06/12 21:11:59;;;;;;;35.42;7.72;;;31.70;40.30;;;;;;5036972;28;20211;-63
2023/06/12 21:14:26;;;;;;;24.13;6.43;;;31.70;40.20;;;;;;5015304;28;20232;-64
2023/06/12 21:16:53;;;;;;;31.83;7.18;;;31.70;40.30;;;;;;5020775;28;20659;-62
2023/06/12 21:19:20;;;;;;;42.13;8.75;;;31.70;40.30;;;;;;5025352;28;20674;-62
2023/06/12 21:21:47;;;;;;;35.30;7.78;;;31.60;40.30;;;;;;5026821;28;20208;-63
2023/06/12 21:24:16;;;;;;;33.05;7.75;;;31.60;40.20;;;;;;5015818;28;20212;-63
2023/06/12 21:26:43;;;;;;;32.75;7.93;;;31.50;40.30;;;;;;5025907;28;20309;-66
2023/06/12 21:29:11;;;;;;;25.08;6.55;;;31.50;40.30;;;;;;5021872;28;20621;-63
2023/06/12 21:31:38;;;;;;;36.13;7.70;;;31.50;40.30;;;;;;5011143;28;20585;-66
2023/06/12 21:34:05;;;;;;;34.33;7.90;;;31.50;40.40;;;;;;5023179;28;20202;-67
2023/06/12 21:36:32;;;;;;;41.40;7.88;;;31.40;40.30;;;;;;5049112;28;20444;-62
2023/06/12 21:38:59;;;;;;;32.08;6.95;;;31.40;40.30;;;;;;5039043;28;20655;-62
2023/06/12 21:41:26;;;;;;;31.05;7.22;;;31.50;40.40;;;;;;5031027;28;20561;-64
2023/06/12 21:43:53;;;;;;;42.15;8.18;;;31.40;40.40;;;;;;5028770;28;20576;-64
2023/06/12 21:46:21;;;;;;;28.95;7.03;;;31.30;40.40;;;;;;5033348;28;20212;-69
2023/06/12 21:48:48;;;;;;;58.25;9.52;;;31.30;40.30;;;;;;5011327;28;20201;-65
2023/06/12 21:51:15;;;;;;;35.40;7.78;;;31.30;40.40;;;;;;5044490;28;20204;-63
2023/06/12 21:53:42;;;;;;;31.30;7.03;;;31.30;40.40;;;;;;5030310;28;20303;-63
2023/06/12 21:56:09;;;;;;;28.52;6.90;;;31.30;40.40;;;;;;5018121;28;20200;-69
2023/06/12 21:58:36;;;;;;;33.33;7.55;;;31.30;40.50;;;;;;5010237;28;20212;-63
2023/06/12 22:01:03;;;;;;;31.92;7.80;;;31.30;40.60;;;;;;5036537;28;20212;-65
2023/06/12 22:03:31;;;;;;;53.50;9.25;;;31.20;40.50;;;;;;5012609;28;20583;-63
2023/06/12 22:05:59;;;;;;;36.38;7.63;;;31.20;40.50;;;;;;5013003;28;20220;-62
2023/06/12 22:08:26;;;;;;;49.47;9.00;;;31.20;40.50;;;;;;5019954;28;20661;-63
2023/06/12 22:10:53;;;;;;;32.78;7.60;;;31.20;40.50;;;;;;5022162;28;20262;-62
2023/06/12 22:13:20;;;;;;;28.33;7.28;;;31.10;40.40;;;;;;5030495;28;20209;-63
2023/06/12 22:15:48;;;;;;;33.03;7.47;;;31.20;40.50;;;;;;5029977;28;20631;-68
2023/06/12 22:18:14;;;;;;;30.52;7.25;;;31.10;40.40;;;;;;5021265;28;20639;-62
2023/06/12 22:20:43;;;;;;;36.95;7.72;;;31.10;40.40;;;;;;5019134;28;20305;-64
2023/06/12 22:23:12;;;;;;;32.45;7.38;;;31.10;40.50;;;;;;5018151;28;20201;-65
2023/06/12 22:25:39;;;;;;;37.80;8.27;;;31.10;40.60;;;;;;5015488;28;20204;-64
2023/06/12 22:28:06;;;;;;;47.85;9.50;;;31.00;40.60;;;;;;5011696;28;20665;-63
2023/06/12 22:30:34;;;;;;;31.65;7.32;;;31.00;40.60;;;;;;5022237;28;20205;-64
2023/06/12 22:33:01;;;;;;;36.30;7.55;;;31.00;40.60;;;;;;5018911;28;20201;-63
2023/06/12 22:35:27;;;;;;;33.22;7.43;;;31.00;40.60;;;;;;5010148;28;20209;-62
2023/06/12 22:37:56;;;;;;;38.30;8.45;;;31.00;40.60;;;;;;5022408;28;20243;-63
2023/06/12 22:40:23;;;;;;;40.80;8.13;;;31.00;40.70;;;;;;5017753;28;20210;-63
2023/06/12 22:42:51;;;;;;;29.98;7.20;;;31.00;40.70;;;;;;5026894;28;20205;-64
2023/06/12 22:45:18;;;;;;;61.60;9.75;;;30.90;40.70;;;;;;5028181;28;20200;-62
2023/06/12 22:47:44;;;;;;;32.08;7.65;;;30.90;40.80;;;;;;5011212;28;20833;-63
2023/06/12 22:50:11;;;;;;;51.10;8.90;;;30.90;40.80;;;;;;5032967;28;20208;-63
2023/06/12 22:52:40;;;;;;;31.13;7.40;;;30.90;40.80;;;;;;5028242;28;20205;-64
2023/06/12 22:55:09;;;;;;;31.90;7.47;;;30.90;40.90;;;;;;5036615;28;20192;-62
2023/06/12 22:57:36;;;;;;;36.55;7.93;;;30.90;40.90;;;;;;5018940;28;20717;-62
2023/06/12 23:00:05;;;;;;;30.90;7.15;;;30.80;40.90;;;;;;5022169;28;20251;-66
2023/06/12 23:02:32;;;;;;;33.20;7.72;;;30.90;41.00;;;;;;5008143;28;20558;-62
2023/06/12 23:04:59;;;;;;;45.40;8.73;;;30.80;40.90;;;;;;5047176;28;20953;-64
2023/06/12 23:07:27;;;;;;;29.98;7.72;;;30.80;41.00;;;;;;5038804;28;20661;-64
2023/06/12 23:09:54;;;;;;;49.47;9.68;;;30.80;41.00;;;;;;5024042;28;20204;-62
2023/06/12 23:12:22;;;;;;;33.70;7.90;;;30.80;41.10;;;;;;5012256;28;20202;-62
2023/06/12 23:14:49;;;;;;;30.65;7.57;;;30.80;41.20;;;;;;5041047;28;20194;-62
2023/06/12 23:17:17;;;;;;;83.28;12.20;;;30.80;41.20;;;;;;5010088;28;20221;-66
2023/06/12 23:19:46;;;;;;;50.22;9.75;;;30.80;41.20;;;;;;5032889;28;20203;-63
2023/06/12 23:22:14;;;;;;;47.47;9.73;;;30.80;41.20;;;;;;5031335;28;20212;-62
2023/06/12 23:24:44;;;;;;;36.65;9.02;;;30.80;41.30;;;;;;5008870;28;20299;-65
2023/06/12 23:27:14;;;;;;;51.55;9.52;;;30.80;41.30;;;;;;5008162;28;21051;-64
2023/06/12 23:29:44;;;;;;;38.17;8.73;;;30.80;41.30;;;;;;5017727;28;20204;-64
2023/06/12 23:32:11;;;;;;;42.28;8.80;;;30.80;41.40;;;;;;5040619;28;20652;-62
2023/06/12 23:34:38;;;;;;;63.15;10.75;;;30.80;41.40;;;;;;5025724;28;20204;-62
2023/06/12 23:37:05;;;;;;;59.58;10.45;;;30.80;41.40;;;;;;5028497;28;20260;-62
2023/06/12 23:39:33;;;;;;;27.85;7.88;;;30.80;41.50;;;;;;5048486;28;20211;-62
2023/06/12 23:42:00;;;;;;;36.92;9.13;;;30.70;41.50;;;;;;5047164;28;20200;-63
2023/06/12 23:44:27;;;;;;;41.17;9.15;;;30.70;41.50;;;;;;5034321;28;20650;-62
2023/06/12 23:46:56;;;;;;;30.42;8.00;;;30.70;41.50;;;;;;5042511;28;20204;-63
2023/06/12 23:49:24;;;;;;;39.50;8.95;;;30.70;41.60;;;;;;5023679;28;20211;-63
2023/06/12 23:51:51;;;;;;;25.88;7.95;;;30.80;41.70;;;;;;5007889;28;20197;-63
2023/06/12 23:54:18;;;;;;;36.75;8.45;;;30.70;41.70;;;;;;5019404;28;20188;-62
2023/06/12 23:56:45;;;;;;;32.58;8.30;;;30.80;41.80;;;;;;5009900;28;20201;-63
2023/06/12 23:59:12;;;;;;;33.08;8.70;;;30.80;41.90;;;;;;5033152;28;20200;-63
